createdAt,value
2023-05-19T00:01:51.135Z,73.15
2023-05-19T00:04:22.799Z,73.26
2023-05-19T00:06:52.347Z,73.52
2023-05-19T00:09:21.380Z,73.30
2023-05-19T00:11:50.700Z,73.11
2023-05-19T00:14:22.531Z,73.47
2023-05-19T00:16:51.768Z,73.88
2023-05-19T00:19:20.021Z,74.05
2023-05-19T00:21:49.279Z,73.46
2023-05-19T00:24:17.552Z,73.06
2023-05-19T00:26:45.609Z,74.33
2023-05-19T00:29:13.895Z,73.86
2023-05-19T00:31:42.619Z,73.63
2023-05-19T00:34:10.995Z,73.74
2023-05-19T00:36:39.050Z,73.73
2023-05-19T00:39:07.575Z,73.65
2023-05-19T00:41:36.365Z,73.71
2023-05-19T00:44:04.815Z,73.58
2023-05-19T00:46:32.864Z,73.19
2023-05-19T00:49:00.996Z,73.76
2023-05-19T00:51:30.058Z,73.36
2023-05-19T00:53:58.770Z,73.78
2023-05-19T00:56:27.443Z,74.12
2023-05-19T00:58:56.011Z,74.19
2023-05-19T01:01:27.126Z,74.08
2023-05-19T01:03:59.358Z,73.65
2023-05-19T01:06:28.078Z,73.81
2023-05-19T01:08:57.785Z,74.69
2023-05-19T01:11:25.978Z,74.43
2023-05-19T01:13:54.245Z,74.22
2023-05-19T01:16:40.938Z,74.01
2023-05-19T01:19:25.677Z,74.18
2023-05-19T01:22:07.179Z,74.06
2023-05-19T01:24:59.173Z,73.82
2023-05-19T01:27:48.993Z,73.66
2023-05-19T01:30:20.012Z,74.01
2023-05-19T01:32:52.831Z,74.00
2023-05-19T01:35:25.113Z,74.36
2023-05-19T01:37:57.431Z,74.10
2023-05-19T01:40:27.024Z,73.97
2023-05-19T01:42:57.815Z,73.50
2023-05-19T01:45:29.746Z,73.13
2023-05-19T01:48:00.315Z,73.39
2023-05-19T01:50:30.054Z,73.28
2023-05-19T01:52:58.849Z,73.51
2023-05-19T01:55:27.473Z,72.69
2023-05-19T01:58:18.011Z,73.34
2023-05-19T02:00:53.209Z,72.65
2023-05-19T02:03:39.261Z,73.41
2023-05-19T02:06:16.357Z,72.81
2023-05-19T02:09:02.620Z,72.70
2023-05-19T02:11:56.997Z,72.30
2023-05-19T02:14:38.772Z,72.08
2023-05-19T02:17:07.228Z,72.45
2023-05-19T02:19:39.388Z,72.27
2023-05-19T02:22:07.878Z,72.10
2023-05-19T02:24:37.891Z,72.33
2023-05-19T02:27:06.609Z,71.88
2023-05-19T02:29:35.265Z,72.01
2023-05-19T02:32:03.552Z,71.92
2023-05-19T02:34:31.842Z,70.99
2023-05-19T02:37:00.264Z,70.90
2023-05-19T02:39:29.610Z,70.20
2023-05-19T02:41:57.831Z,69.60
2023-05-19T02:44:25.898Z,68.81
2023-05-19T02:46:54.202Z,68.23
2023-05-19T02:49:22.334Z,67.85
2023-05-19T02:51:50.718Z,68.08
2023-05-19T02:54:21.990Z,67.99
2023-05-19T02:56:50.297Z,67.85
2023-05-19T02:59:18.221Z,66.99
2023-05-19T03:01:47.945Z,66.84
2023-05-19T03:04:15.836Z,65.90
2023-05-19T03:06:45.856Z,65.76
2023-05-19T03:09:14.836Z,65.52
2023-05-19T03:11:43.391Z,65.69
2023-05-19T03:14:12.443Z,65.95
2023-05-19T03:16:42.713Z,66.13
2023-05-19T03:19:10.811Z,65.25
2023-05-19T03:21:41.660Z,65.27
2023-05-19T03:24:09.531Z,65.24
2023-05-19T03:26:38.343Z,65.07
2023-05-19T03:29:08.715Z,64.53
2023-05-19T03:31:38.570Z,64.96
2023-05-19T03:34:06.608Z,63.77
2023-05-19T03:36:39.937Z,62.89
2023-05-19T03:39:13.333Z,63.22
2023-05-19T03:41:41.964Z,62.53
2023-05-19T03:44:09.753Z,61.85
2023-05-19T03:46:38.744Z,61.87
2023-05-19T03:49:26.190Z,61.19
2023-05-19T03:52:13.237Z,60.04
2023-05-19T03:54:54.704Z,60.86
2023-05-19T03:57:23.026Z,60.62
2023-05-19T03:59:50.992Z,60.43
2023-05-19T04:02:19.488Z,60.23
2023-05-19T04:04:50.926Z,60.59
2023-05-19T04:07:19.763Z,59.99
2023-05-19T04:09:48.920Z,59.05
2023-05-19T04:12:17.328Z,59.02
2023-05-19T04:14:46.400Z,58.91
2023-05-19T04:17:14.746Z,58.80
2023-05-19T04:19:42.720Z,58.80
2023-05-19T04:22:10.918Z,58.33
2023-05-19T04:24:38.851Z,58.29
2023-05-19T04:27:12.332Z,58.35
2023-05-19T04:29:41.425Z,58.47
2023-05-19T04:32:10.989Z,57.85
2023-05-19T04:34:40.701Z,57.45
2023-05-19T04:37:10.550Z,57.94
2023-05-19T04:39:41.634Z,57.11
2023-05-19T04:42:11.676Z,57.35
2023-05-19T04:44:40.436Z,57.40
2023-05-19T04:47:11.901Z,57.60
2023-05-19T04:49:40.035Z,57.50
2023-05-19T04:52:11.146Z,57.70
2023-05-19T04:54:40.536Z,57.13
2023-05-19T04:57:11.609Z,56.83
2023-05-19T04:59:41.013Z,57.39
2023-05-19T05:02:10.095Z,57.27
2023-05-19T05:04:42.786Z,57.39
2023-05-19T05:07:11.747Z,57.42
2023-05-19T05:09:40.374Z,57.47
2023-05-19T05:12:09.677Z,57.67
2023-05-19T05:14:40.533Z,57.68
2023-05-19T05:17:11.225Z,57.61
2023-05-19T05:19:39.529Z,57.42
2023-05-19T05:22:08.464Z,57.16
2023-05-19T05:24:40.300Z,57.60
2023-05-19T05:27:10.550Z,57.54
2023-05-19T05:29:38.730Z,56.80
2023-05-19T05:32:08.686Z,56.53
2023-05-19T05:34:38.408Z,57.01
2023-05-19T05:37:06.958Z,56.87
2023-05-19T05:39:35.966Z,56.68
2023-05-19T05:42:04.402Z,56.04
2023-05-19T05:44:34.545Z,56.21
2023-05-19T05:47:04.559Z,56.05
2023-05-19T05:49:33.149Z,55.62
2023-05-19T05:52:06.111Z,55.11
2023-05-19T05:54:40.310Z,54.92
2023-05-19T05:57:09.917Z,54.76
2023-05-19T05:59:38.926Z,54.82
2023-05-19T06:02:07.849Z,54.91
2023-05-19T06:04:36.558Z,54.94
2023-05-19T06:07:05.803Z,54.28
2023-05-19T06:09:37.620Z,54.13
2023-05-19T06:12:07.770Z,53.73
2023-05-19T06:14:41.468Z,54.00
2023-05-19T06:17:36.398Z,53.42
2023-05-19T06:20:09.159Z,53.99
2023-05-19T06:22:40.964Z,53.66
2023-05-19T06:25:10.228Z,53.06
2023-05-19T06:27:38.741Z,52.89
2023-05-19T06:30:10.284Z,53.26
2023-05-19T06:32:58.986Z,53.35
2023-05-19T06:35:27.694Z,52.36
2023-05-19T06:37:56.654Z,52.41
2023-05-19T06:40:24.851Z,52.23
2023-05-19T06:42:53.232Z,52.29
2023-05-19T06:45:29.599Z,51.73
2023-05-19T06:47:59.773Z,52.16
2023-05-19T06:50:28.519Z,52.20
2023-05-19T06:52:59.174Z,52.02
2023-05-19T06:55:28.053Z,52.07
2023-05-19T06:57:56.605Z,52.15
2023-05-19T07:00:24.450Z,52.37
2023-05-19T07:02:54.518Z,51.91
2023-05-19T07:05:23.136Z,51.68
2023-05-19T07:07:56.873Z,51.30
2023-05-19T07:10:28.742Z,51.52
2023-05-19T07:12:58.739Z,51.71
2023-05-19T07:15:30.404Z,51.59
2023-05-19T07:17:59.376Z,52.07
2023-05-19T07:20:27.509Z,51.92
2023-05-19T07:22:56.494Z,51.18
2023-05-19T07:25:25.092Z,51.85
2023-05-19T07:27:53.698Z,52.35
2023-05-19T07:30:21.581Z,51.32
2023-05-19T07:32:50.843Z,51.25
2023-05-19T07:35:18.875Z,51.13
2023-05-19T07:37:47.097Z,51.09
2023-05-19T07:40:15.791Z,51.19
2023-05-19T07:42:49.012Z,50.26
2023-05-19T07:45:18.187Z,50.69
2023-05-19T07:47:46.580Z,50.64
2023-05-19T07:50:14.493Z,51.06
2023-05-19T07:52:43.044Z,50.78
2023-05-19T07:55:11.934Z,50.70
2023-05-19T07:57:40.177Z,48.88
2023-05-19T08:00:10.345Z,49.44
2023-05-19T08:02:40.686Z,49.27
2023-05-19T08:05:09.763Z,49.64
2023-05-19T08:07:38.184Z,48.35
2023-05-19T08:10:06.494Z,49.19
2023-05-19T08:12:34.923Z,50.04
2023-05-19T08:15:02.926Z,48.26
2023-05-19T08:17:33.195Z,48.94
2023-05-19T08:34:59.889Z,47.24
2023-05-19T08:37:28.681Z,47.50
2023-05-19T08:39:57.707Z,46.83
2023-05-19T08:42:26.147Z,46.96
2023-05-19T08:44:54.228Z,47.33
2023-05-19T08:47:23.133Z,47.47
2023-05-19T08:49:53.580Z,47.29
2023-05-19T08:52:36.723Z,47.58
2023-05-19T08:55:09.939Z,46.69
2023-05-19T08:57:38.797Z,47.70
2023-05-19T09:00:12.421Z,48.75
2023-05-19T09:02:50.618Z,48.15
2023-05-19T09:05:30.052Z,48.10
2023-05-19T09:07:58.462Z,47.45
2023-05-19T09:10:28.480Z,46.82
2023-05-19T09:12:57.965Z,48.05
2023-05-19T09:15:28.745Z,47.43
2023-05-19T09:18:11.853Z,48.34
2023-05-19T09:20:41.864Z,48.29
2023-05-19T09:23:18.073Z,49.19
2023-05-19T09:25:50.464Z,47.93
2023-05-19T09:28:29.717Z,47.62
2023-05-19T09:31:15.612Z,47.81
2023-05-19T09:33:45.759Z,48.08
2023-05-19T09:36:14.555Z,48.42
2023-05-19T09:38:42.916Z,48.97
2023-05-19T09:41:11.380Z,48.31
2023-05-19T09:43:39.848Z,49.04
2023-05-19T09:46:14.960Z,49.02
2023-05-19T09:48:45.263Z,49.19
2023-05-19T09:51:13.269Z,49.39
2023-05-19T09:53:42.443Z,48.97
2023-05-19T09:56:10.507Z,48.53
2023-05-19T09:58:42.940Z,49.42
2023-05-19T10:01:11.579Z,49.59
2023-05-19T10:03:40.790Z,48.56
2023-05-19T10:06:09.658Z,48.49
2023-05-19T10:08:40.026Z,48.19
2023-05-19T10:11:08.904Z,48.91
2023-05-19T10:13:39.328Z,49.00
2023-05-19T10:16:08.956Z,49.14
2023-05-19T10:18:40.023Z,49.62
2023-05-19T10:21:09.293Z,48.99
2023-05-19T10:23:37.713Z,48.41
2023-05-19T10:26:07.134Z,49.19
2023-05-19T10:28:39.599Z,48.61
2023-05-19T10:31:11.827Z,48.46
2023-05-19T10:33:58.628Z,48.03
2023-05-19T10:36:44.640Z,47.81
2023-05-19T10:39:25.670Z,47.40
2023-05-19T10:42:24.848Z,47.48
2023-05-19T10:45:18.382Z,47.52
2023-05-19T10:47:46.740Z,47.34
2023-05-19T10:50:16.015Z,47.47
2023-05-19T10:52:45.230Z,47.35
2023-05-19T10:55:17.899Z,47.79
2023-05-19T10:57:57.188Z,48.27
2023-05-19T11:00:30.583Z,48.09
2023-05-19T11:03:14.910Z,48.07
2023-05-19T11:05:45.953Z,47.61
2023-05-19T11:08:14.025Z,47.80
2023-05-19T11:10:47.040Z,48.32
2023-05-19T11:13:23.526Z,48.07
2023-05-19T11:18:21.339Z,47.67
2023-05-19T11:20:58.661Z,47.66
2023-05-19T11:23:26.998Z,47.50
2023-05-19T11:25:55.296Z,48.56
2023-05-19T11:28:28.490Z,48.37
2023-05-19T11:30:59.376Z,48.16
2023-05-19T11:33:30.487Z,48.25
2023-05-19T11:35:58.931Z,48.25
2023-05-19T11:38:30.384Z,48.49
2023-05-19T11:40:59.363Z,48.29
2023-05-19T11:43:27.809Z,47.89
2023-05-19T11:45:56.423Z,48.49
2023-05-19T11:48:26.969Z,49.10
2023-05-19T11:50:57.116Z,49.06
2023-05-19T11:53:25.264Z,49.53
2023-05-19T11:55:54.562Z,49.48
2023-05-19T11:58:28.071Z,49.17
2023-05-19T12:00:57.553Z,48.56
2023-05-19T12:03:29.004Z,48.92
2023-05-19T12:05:57.660Z,48.62
2023-05-19T12:08:26.096Z,49.12
2023-05-19T12:10:54.671Z,48.87
2023-05-19T12:13:23.735Z,49.16
2023-05-19T12:16:00.946Z,49.47
2023-05-19T12:18:32.150Z,50.04
2023-05-19T12:21:00.903Z,49.90
2023-05-19T12:23:31.087Z,49.88
2023-05-19T12:26:00.304Z,50.08
2023-05-19T12:28:31.445Z,50.18
2023-05-19T12:31:00.028Z,50.72
2023-05-19T12:33:27.992Z,50.96
2023-05-19T12:35:56.561Z,51.12
2023-05-19T12:38:24.535Z,51.44
2023-05-19T12:40:53.198Z,52.09
2023-05-19T12:43:22.823Z,52.51
2023-05-19T12:45:51.671Z,52.77
2023-05-19T12:48:23.006Z,52.80
2023-05-19T12:50:57.178Z,52.52
2023-05-19T12:53:27.470Z,52.73
2023-05-19T15:07:36.002Z,60.65
2023-05-19T15:10:05.210Z,62.52
2023-05-19T15:12:33.254Z,62.67
2023-05-19T15:15:01.651Z,65.38
2023-05-19T15:17:30.122Z,64.94
2023-05-19T15:19:58.440Z,66.29
2023-05-19T15:22:27.391Z,65.93
2023-05-19T15:24:55.830Z,65.51
2023-05-19T15:27:23.835Z,65.99
2023-05-19T15:29:52.232Z,67.17
2023-05-19T15:32:20.490Z,68.76
2023-05-19T15:34:49.281Z,68.06
2023-05-19T15:37:17.333Z,68.24
2023-05-19T15:39:45.869Z,68.10
2023-05-19T15:42:13.710Z,68.16
2023-05-19T15:44:41.963Z,67.89
2023-05-19T15:47:10.075Z,70.60
2023-05-19T15:49:38.450Z,67.45
2023-05-19T15:52:06.894Z,68.60
2023-05-19T15:54:35.274Z,70.52
2023-05-19T15:57:03.094Z,72.43
2023-05-19T15:59:31.472Z,72.39
2023-05-19T16:01:59.633Z,73.01
2023-05-19T16:04:27.840Z,73.13
2023-05-19T16:06:55.944Z,73.16
2023-05-19T16:09:24.185Z,73.58
2023-05-19T16:11:52.354Z,73.66
2023-05-19T16:14:21.136Z,74.22
2023-05-19T16:16:49.220Z,74.13
2023-05-19T16:19:17.985Z,74.48
2023-05-19T16:21:46.085Z,75.23
2023-05-19T16:24:14.322Z,74.91
2023-05-19T16:26:42.192Z,74.11
2023-05-19T16:29:10.425Z,75.17
2023-05-19T16:31:39.240Z,74.43
2023-05-19T16:34:07.657Z,75.12
2023-05-19T16:36:35.690Z,75.92
2023-05-19T16:39:04.290Z,77.04
2023-05-19T16:41:32.157Z,75.93
2023-05-19T16:44:02.554Z,75.36
2023-05-19T16:46:31.669Z,75.31
2023-05-19T16:49:00.575Z,74.95
2023-05-19T16:51:28.476Z,75.07
2023-05-19T16:53:56.833Z,76.48
2023-05-19T16:56:24.779Z,77.23
2023-05-19T16:58:54.908Z,76.52
2023-05-19T17:01:23.133Z,77.77
2023-05-19T17:03:51.880Z,78.49
2023-05-19T17:06:19.804Z,77.64
2023-05-19T17:08:48.164Z,77.86
2023-05-19T17:11:16.175Z,78.79
2023-05-19T17:13:46.605Z,77.63
2023-05-19T17:16:14.851Z,76.75
2023-05-19T17:18:44.072Z,77.51
2023-05-19T17:21:12.311Z,77.14
2023-05-19T17:23:42.167Z,77.58
2023-05-19T17:26:10.116Z,77.09
2023-05-19T17:28:38.393Z,76.15
2023-05-19T17:31:12.696Z,77.44
2023-05-19T17:33:41.548Z,76.67
2023-05-19T17:36:09.934Z,76.02
2023-05-19T17:38:40.594Z,74.96
2023-05-19T17:41:14.263Z,77.21
2023-05-19T17:43:43.156Z,78.36
2023-05-19T17:46:12.041Z,76.95
2023-05-19T17:48:40.501Z,77.38
2023-05-19T17:51:08.520Z,78.48
2023-05-19T17:53:37.370Z,78.70
2023-05-19T17:56:07.608Z,78.24
2023-05-19T17:58:36.637Z,78.94
2023-05-19T18:01:04.849Z,76.12
2023-05-19T18:03:33.656Z,76.72
2023-05-19T18:06:02.491Z,77.10
2023-05-19T18:08:32.235Z,76.80
2023-05-19T18:11:01.029Z,77.24
2023-05-19T18:13:29.281Z,77.51
2023-05-19T18:15:59.416Z,78.11
2023-05-19T18:18:27.892Z,78.30
2023-05-19T18:20:55.813Z,78.92
2023-05-19T18:23:24.120Z,79.13
2023-05-19T18:25:53.961Z,79.71
2023-05-19T18:28:24.134Z,79.58
2023-05-19T18:31:15.890Z,78.56
2023-05-19T18:33:44.528Z,79.18
2023-05-19T18:36:15.755Z,78.67
2023-05-19T18:38:44.351Z,78.19
2023-05-19T18:41:12.331Z,78.20
2023-05-19T18:43:40.693Z,77.85
2023-05-19T18:46:08.556Z,77.84
2023-05-19T18:48:36.906Z,77.61
2023-05-19T18:51:05.273Z,78.04
2023-05-19T18:53:35.069Z,78.32
2023-05-19T18:56:06.800Z,78.41
2023-05-19T18:58:35.199Z,77.51
2023-05-19T19:01:03.028Z,77.92
2023-05-19T19:03:31.792Z,77.62
2023-05-19T19:06:00.747Z,77.78
2023-05-19T19:08:29.094Z,77.52
2023-05-19T19:11:00.526Z,77.73
2023-05-19T19:13:29.053Z,77.82
2023-05-19T19:15:57.006Z,77.64
2023-05-19T19:18:26.419Z,77.59
2023-05-19T19:20:55.227Z,77.15
2023-05-19T19:23:24.113Z,76.07
2023-05-19T19:25:52.227Z,75.86
2023-05-19T19:28:21.046Z,77.17
2023-05-19T19:30:49.991Z,77.94
2023-05-19T19:33:18.435Z,77.68
2023-05-19T19:35:47.211Z,77.79
2023-05-19T19:38:15.415Z,77.93
2023-05-19T19:40:43.402Z,78.34
2023-05-19T19:43:11.684Z,78.25
2023-05-19T19:45:39.955Z,78.16
2023-05-19T19:48:09.629Z,77.68
2023-05-19T19:50:39.130Z,77.43
2023-05-19T19:53:09.030Z,77.37
2023-05-19T19:55:37.042Z,77.46
2023-05-19T19:58:05.288Z,77.50
2023-05-19T20:00:33.363Z,77.10
2023-05-19T20:03:05.507Z,77.26
2023-05-19T20:05:34.553Z,77.44
2023-05-19T20:08:02.830Z,78.24
2023-05-19T20:10:30.684Z,77.24
2023-05-19T20:12:59.771Z,77.12
2023-05-19T20:15:28.338Z,77.59
2023-05-19T20:17:56.579Z,77.96
2023-05-19T20:20:25.086Z,78.08
2023-05-19T20:22:53.350Z,78.02
2023-05-19T20:25:21.268Z,78.35
2023-05-19T20:27:50.431Z,78.47
2023-05-19T20:30:18.780Z,77.90
2023-05-19T20:32:50.982Z,78.00
2023-05-19T20:35:19.385Z,77.63
2023-05-19T20:37:48.266Z,77.74
2023-05-19T20:40:16.274Z,77.73
2023-05-19T20:42:45.115Z,76.98
2023-05-19T20:45:13.046Z,77.95
2023-05-19T20:47:41.298Z,76.59
2023-05-19T20:50:09.641Z,76.85
2023-05-19T20:52:37.922Z,77.00
2023-05-19T20:55:06.001Z,76.75
2023-05-19T20:57:34.520Z,77.37
2023-05-19T21:00:02.902Z,77.37
2023-05-19T21:02:37.980Z,77.31
2023-05-19T21:05:06.324Z,77.62
2023-05-19T21:07:34.715Z,77.94
2023-05-19T21:10:02.957Z,77.97
2023-05-19T21:12:34.324Z,78.31
2023-05-19T21:15:03.988Z,78.27
2023-05-19T21:17:32.418Z,78.54
2023-05-19T21:20:00.940Z,78.19
2023-05-19T21:22:32.425Z,78.42
2023-05-19T21:25:00.445Z,78.45
2023-05-19T21:27:28.677Z,78.22
2023-05-19T21:29:56.612Z,78.32
2023-05-19T21:32:41.622Z,77.86
2023-05-19T21:35:09.814Z,78.70
2023-05-19T21:37:38.634Z,78.91
2023-05-19T21:40:08.311Z,78.48
2023-05-19T21:42:36.876Z,78.41
2023-05-19T21:45:05.399Z,78.46
2023-05-19T21:47:34.741Z,78.92
2023-05-19T21:50:02.879Z,78.86
2023-05-19T21:52:32.681Z,79.08
2023-05-19T21:55:00.511Z,79.25
2023-05-19T21:57:28.711Z,79.79
2023-05-19T21:59:56.853Z,79.40
2023-05-19T22:02:27.694Z,79.28
2023-05-19T22:05:16.424Z,79.17
2023-05-19T22:07:46.530Z,78.79
2023-05-19T22:10:14.622Z,79.22
2023-05-19T22:12:42.928Z,79.01
2023-05-19T22:15:11.814Z,79.23
2023-05-19T22:17:40.109Z,79.26
2023-05-19T22:20:08.590Z,79.38
2023-05-19T22:22:36.931Z,79.60
2023-05-19T22:25:05.326Z,79.29
2023-05-19T22:27:33.569Z,79.35
2023-05-19T22:30:01.475Z,79.31
2023-05-19T22:32:33.255Z,79.27
2023-05-19T22:35:01.735Z,79.09
2023-05-19T22:37:32.501Z,78.89
2023-05-19T22:40:00.573Z,78.92
2023-05-19T22:42:30.975Z,78.67
2023-05-19T22:44:59.285Z,78.78
2023-05-19T22:47:27.785Z,78.98
2023-05-19T22:49:57.183Z,78.64
2023-05-19T22:52:26.210Z,78.61
2023-05-19T22:54:54.152Z,78.64
2023-05-19T22:57:22.628Z,78.59
2023-05-19T22:59:50.626Z,79.05
2023-05-19T23:02:20.037Z,79.64
2023-05-19T23:04:48.146Z,79.27
2023-05-19T23:07:16.446Z,79.74
2023-05-19T23:09:44.336Z,79.76
2023-05-19T23:12:12.794Z,80.30
2023-05-19T23:14:40.637Z,80.27
2023-05-19T23:17:09.153Z,79.95
2023-05-19T23:19:37.516Z,79.97
2023-05-19T23:22:05.905Z,79.57
2023-05-19T23:24:35.797Z,79.41
2023-05-19T23:27:04.135Z,79.52
2023-05-19T23:29:32.136Z,79.65
2023-05-19T23:32:00.509Z,79.80
2023-05-19T23:34:28.570Z,79.71
2023-05-19T23:36:56.729Z,79.79
2023-05-19T23:39:25.638Z,80.36
2023-05-19T23:41:53.839Z,80.50
2023-05-19T23:44:21.787Z,80.55
2023-05-19T23:46:50.537Z,80.74
2023-05-19T23:49:18.529Z,80.51
2023-05-19T23:51:47.008Z,80.52
2023-05-19T23:54:14.799Z,80.18
2023-05-19T23:56:43.116Z,80.20
2023-05-19T23:59:12.210Z,80.74
